createdAt,value
2023-05-01T00:02:34.436Z,99210.56
2023-05-01T00:07:42.733Z,99201.56
2023-05-01T00:12:48.204Z,99195.97
2023-05-01T00:17:53.782Z,99192.84
2023-05-01T00:23:02.659Z,99191.28
2023-05-01T00:28:08.480Z,99190.75
2023-05-01T00:33:13.633Z,99185.97
2023-05-01T00:38:24.442Z,99178.28
2023-05-01T00:43:29.898Z,99183.72
2023-05-01T00:48:35.103Z,99175.78
2023-05-01T00:53:46.260Z,99183.75
2023-05-01T00:58:55.347Z,99180.50
2023-05-01T01:04:01.650Z,99177.09
2023-05-01T01:09:26.251Z,99169.84
2023-05-01T01:14:36.931Z,99172.13
2023-05-01T01:20:17.778Z,99169.25
2023-05-01T01:26:01.385Z,99158.44
2023-05-01T01:31:23.651Z,99158.88
2023-05-01T01:36:40.352Z,99157.00
2023-05-01T01:41:53.170Z,99143.22
2023-05-01T01:47:02.259Z,99150.53
2023-05-01T01:52:14.410Z,99133.81
2023-05-01T01:57:21.792Z,99133.97
2023-05-01T02:02:29.576Z,99136.06
2023-05-01T02:07:38.806Z,99130.53
2023-05-01T02:12:46.295Z,99126.50
2023-05-01T02:17:54.332Z,99114.47
2023-05-01T02:23:03.375Z,99111.38
2023-05-01T02:28:16.329Z,99119.84
2023-05-01T02:33:21.656Z,99106.53
2023-05-01T02:38:29.822Z,99105.31
2023-05-01T02:43:36.949Z,99108.72
2023-05-01T02:48:45.280Z,99103.25
2023-05-01T02:53:53.767Z,99094.56
2023-05-01T02:59:00.907Z,99088.38
2023-05-01T03:04:06.059Z,99086.25
2023-05-01T03:09:14.453Z,99090.53
2023-05-01T03:14:19.928Z,99086.88
2023-05-01T03:19:25.661Z,99082.56
2023-05-01T03:24:33.859Z,99074.31
2023-05-01T03:29:39.870Z,99070.69
2023-05-01T03:34:45.059Z,99068.72
2023-05-01T03:39:56.608Z,99063.41
2023-05-01T03:45:21.395Z,99059.22
2023-05-01T03:50:26.822Z,99072.91
2023-05-01T03:55:37.285Z,99066.19
2023-05-01T04:00:43.238Z,99045.47
2023-05-01T04:05:49.238Z,99053.53
2023-05-01T04:10:59.465Z,99061.13
2023-05-01T04:16:05.105Z,99053.66
2023-05-01T04:21:11.098Z,99052.19
2023-05-01T04:26:22.302Z,99045.16
2023-05-01T04:31:28.109Z,99051.16
2023-05-01T04:36:35.591Z,99054.88
2023-05-01T04:41:44.057Z,99039.38
2023-05-01T04:46:49.741Z,99033.50
2023-05-01T04:51:57.171Z,99031.94
2023-05-01T04:57:09.003Z,99022.97
2023-05-01T05:02:14.224Z,99026.97
2023-05-01T05:07:21.861Z,99015.00
2023-05-01T05:12:52.679Z,99016.97
2023-05-01T05:17:58.112Z,99012.09
2023-05-01T05:23:04.882Z,99017.25
2023-05-01T05:28:12.785Z,99015.81
2023-05-01T05:33:18.550Z,99009.28
2023-05-01T05:38:25.857Z,99009.47
2023-05-01T05:43:37.545Z,99014.03
2023-05-01T05:48:46.240Z,99004.03
2023-05-01T05:53:52.578Z,99009.25
2023-05-01T05:59:03.760Z,98995.78
2023-05-01T06:04:09.760Z,98981.28
2023-05-01T06:09:19.198Z,98988.91
2023-05-01T06:14:26.974Z,98995.94
2023-05-01T06:19:43.187Z,98988.59
2023-05-01T06:24:49.774Z,98989.59
2023-05-01T06:30:01.678Z,98987.56
2023-05-01T06:35:09.551Z,98968.22
2023-05-01T06:40:16.982Z,98971.22
2023-05-01T06:45:27.823Z,98965.56
2023-05-01T06:50:33.609Z,98966.91
2023-05-01T06:55:40.127Z,98964.78
2023-05-01T07:00:47.825Z,98953.09
2023-05-01T07:05:54.138Z,98950.25
2023-05-01T07:11:00.584Z,98948.09
2023-05-01T07:16:09.496Z,98947.84
2023-05-01T07:21:14.758Z,98947.94
2023-05-01T07:26:20.238Z,98934.09
2023-05-01T07:31:28.255Z,98930.09
2023-05-01T07:36:36.829Z,98922.81
2023-05-01T07:41:41.832Z,98926.34
2023-05-01T07:46:49.743Z,98917.66
2023-05-01T07:51:58.368Z,98920.16
2023-05-01T07:57:05.778Z,98921.22
2023-05-01T08:02:18.978Z,98918.56
2023-05-01T08:07:24.964Z,98922.16
2023-05-01T08:12:34.214Z,98917.94
2023-05-01T08:17:42.286Z,98919.38
2023-05-01T08:22:50.087Z,98919.78
2023-05-01T08:27:55.412Z,98908.19
2023-05-01T08:33:03.714Z,98913.25
2023-05-01T08:38:08.874Z,98919.25
2023-05-01T08:43:14.341Z,98911.16
2023-05-01T08:48:23.908Z,98920.03
2023-05-01T08:53:32.040Z,98906.03
2023-05-01T08:58:38.863Z,98899.28
2023-05-01T09:03:47.432Z,98899.28
2023-05-01T09:08:52.636Z,98898.31
2023-05-01T09:14:00.578Z,98885.41
2023-05-01T09:19:08.493Z,98882.94
2023-05-01T09:24:13.858Z,98873.25
2023-05-01T09:29:40.848Z,98869.84
2023-05-01T09:34:50.342Z,98867.19
2023-05-01T09:40:06.120Z,98856.69
2023-05-01T09:45:17.185Z,98850.06
2023-05-01T09:50:38.785Z,98839.16
2023-05-01T09:55:43.869Z,98837.59
2023-05-01T10:00:52.972Z,98832.44
2023-05-01T10:06:02.137Z,98825.09
2023-05-01T10:11:08.475Z,98829.53
2023-05-01T10:16:32.007Z,98804.38
2023-05-01T10:21:39.893Z,98805.97
2023-05-01T10:26:46.252Z,98798.41
2023-05-01T10:31:52.260Z,98795.19
2023-05-01T10:37:06.395Z,98796.19
2023-05-01T10:42:14.582Z,98775.06
2023-05-01T10:47:50.594Z,98775.88
2023-05-01T10:53:22.619Z,98763.81
2023-05-01T10:59:04.943Z,98759.16
2023-05-01T11:04:30.770Z,98743.56
2023-05-01T11:09:44.480Z,98730.38
2023-05-01T11:15:05.984Z,98740.06
2023-05-01T11:20:12.758Z,98750.56
2023-05-01T11:25:25.063Z,98729.59
2023-05-01T11:30:39.836Z,98716.47
2023-05-01T11:35:47.680Z,98703.59
2023-05-01T11:41:04.051Z,98690.97
2023-05-01T11:46:09.611Z,98699.94
2023-05-01T11:51:16.253Z,98692.81
2023-05-01T11:56:27.552Z,98684.16
2023-05-01T12:01:41.154Z,98680.78
2023-05-01T12:06:49.157Z,98664.28
2023-05-01T12:11:58.162Z,98649.34
2023-05-01T12:17:04.488Z,98637.31
2023-05-01T12:22:09.882Z,98632.16
2023-05-01T12:27:21.262Z,98602.41
2023-05-01T12:32:35.716Z,98609.00
2023-05-01T12:37:41.724Z,98596.69
2023-05-01T12:42:59.124Z,98584.13
2023-05-01T12:48:04.308Z,98573.94
2023-05-01T12:53:09.966Z,98584.00
2023-05-01T12:58:18.506Z,98576.50
2023-05-01T13:03:28.452Z,98553.03
2023-05-01T13:08:35.159Z,98556.63
2023-05-01T13:13:43.641Z,98545.84
2023-05-01T13:18:50.825Z,98541.59
2023-05-01T13:23:59.134Z,98539.47
2023-05-01T13:29:08.346Z,98538.16
2023-05-01T13:34:13.639Z,98535.94
2023-05-01T13:39:23.083Z,98534.47
2023-05-01T13:44:33.063Z,98523.72
2023-05-01T13:49:40.653Z,98546.03
2023-05-01T13:54:47.257Z,98528.88
2023-05-01T13:59:55.469Z,98531.22
2023-05-01T14:05:01.146Z,98515.88
2023-05-01T14:10:07.416Z,98510.50
2023-05-01T14:15:17.357Z,98505.81
2023-05-01T14:20:22.942Z,98501.59
2023-05-01T14:25:30.163Z,98501.03
2023-05-01T14:30:40.170Z,98495.53
2023-05-01T14:35:52.878Z,98478.97
2023-05-01T14:41:01.219Z,98470.53
2023-05-01T14:46:09.632Z,98471.66
2023-05-01T14:51:15.699Z,98474.91
2023-05-01T14:56:21.153Z,98481.63
2023-05-01T15:01:31.633Z,98475.47
2023-05-01T15:06:36.830Z,98471.34
2023-05-01T15:11:42.103Z,98469.41
2023-05-01T15:16:49.862Z,98463.25
2023-05-01T15:21:55.090Z,98464.34
2023-05-01T15:27:00.199Z,98463.84
2023-05-01T15:32:12.529Z,98453.59
2023-05-01T15:37:20.776Z,98455.03
2023-05-01T15:42:25.845Z,98445.97
2023-05-01T15:47:34.743Z,98443.94
2023-05-01T15:52:40.127Z,98440.75
2023-05-01T15:57:49.976Z,98438.97
2023-05-01T16:02:57.751Z,98435.34
2023-05-01T16:08:05.471Z,98435.09
2023-05-01T16:13:10.595Z,98429.78
2023-05-01T16:18:23.302Z,98431.34
2023-05-01T16:23:29.162Z,98433.66
2023-05-01T16:28:36.791Z,98429.91
2023-05-01T16:33:44.553Z,98429.22
2023-05-01T16:38:50.220Z,98431.66
2023-05-01T16:43:55.487Z,98435.31
2023-05-01T16:49:03.457Z,98426.59
2023-05-01T16:54:08.469Z,98438.50
2023-05-01T16:59:15.876Z,98426.41
2023-05-01T17:04:23.682Z,98425.56
2023-05-01T17:09:30.397Z,98422.31
2023-05-01T17:14:37.804Z,98424.75
2023-05-01T17:19:48.541Z,98414.91
2023-05-01T17:24:53.593Z,98421.38
2023-05-01T17:30:00.359Z,98424.63
2023-05-01T17:35:15.856Z,98430.84
2023-05-01T17:40:21.516Z,98424.06
2023-05-01T17:45:26.776Z,98424.50
2023-05-01T17:50:35.796Z,98428.94
2023-05-01T17:55:43.057Z,98418.56
2023-05-01T18:00:48.607Z,98414.34
2023-05-01T18:05:57.081Z,98422.16
2023-05-01T18:11:02.315Z,98425.03
2023-05-01T18:16:09.110Z,98419.00
2023-05-01T18:21:17.129Z,98425.44
2023-05-01T18:26:22.747Z,98421.06
2023-05-01T18:31:28.016Z,98436.63
2023-05-01T18:36:35.845Z,98431.09
2023-05-01T18:41:45.742Z,98433.78
2023-05-01T18:46:51.146Z,98430.31
2023-05-01T18:51:59.188Z,98442.56
2023-05-01T18:57:04.346Z,98435.06
2023-05-01T19:02:09.819Z,98448.59
2023-05-01T19:07:18.330Z,98444.78
2023-05-01T19:12:23.932Z,98446.31
2023-05-01T19:17:29.251Z,98449.00
2023-05-01T19:22:39.279Z,98445.22
2023-05-01T19:27:45.525Z,98447.28
2023-05-01T19:32:52.741Z,98450.31
2023-05-01T19:38:02.078Z,98445.28
2023-05-01T19:43:07.547Z,98448.06
2023-05-01T19:48:13.012Z,98467.03
2023-05-01T19:53:21.258Z,98458.13
2023-05-01T19:58:27.008Z,98456.06
2023-05-01T20:03:35.783Z,98460.19
2023-05-01T20:08:44.611Z,98453.59
2023-05-01T20:13:49.748Z,98455.38
2023-05-01T20:18:55.005Z,98450.66
2023-05-01T20:24:03.179Z,98454.19
2023-05-01T20:29:09.587Z,98454.91
2023-05-01T20:34:14.727Z,98462.91
2023-05-01T20:39:23.046Z,98474.66
2023-05-01T20:44:30.384Z,98480.25
2023-05-01T20:49:36.005Z,98484.16
2023-05-01T20:54:45.034Z,98498.75
2023-05-01T20:59:51.162Z,98509.94
2023-05-01T21:04:57.773Z,98495.38
2023-05-01T21:10:10.796Z,98506.53
2023-05-01T21:15:15.952Z,98515.13
2023-05-01T21:20:32.277Z,98516.91
2023-05-01T21:25:42.091Z,98529.84
2023-05-01T21:30:47.452Z,98530.84
2023-05-01T21:35:52.690Z,98552.59
2023-05-01T21:41:00.817Z,98552.28
2023-05-01T21:46:06.221Z,98556.16
2023-05-01T21:51:11.675Z,98543.88
2023-05-01T21:56:21.289Z,98545.06
2023-05-01T22:01:26.920Z,98537.47
2023-05-01T22:06:33.396Z,98539.03
2023-05-01T22:11:42.408Z,98548.03
2023-05-01T22:16:49.532Z,98550.91
2023-05-01T22:21:54.808Z,98556.38
2023-05-01T22:27:02.821Z,98557.25
2023-05-01T22:32:08.679Z,98554.88
2023-05-01T22:37:14.333Z,98564.81
2023-05-01T22:42:22.665Z,98565.88
2023-05-01T22:47:30.318Z,98567.59
2023-05-01T22:52:35.666Z,98570.00
2023-05-01T22:57:44.509Z,98569.31
2023-05-01T23:02:49.818Z,98572.72
2023-05-01T23:07:56.524Z,98578.63
2023-05-01T23:13:07.227Z,98572.34
2023-05-01T23:18:15.928Z,98575.59
2023-05-01T23:23:23.318Z,98576.56
2023-05-01T23:28:32.324Z,98580.38
2023-05-01T23:33:39.635Z,98586.09
2023-05-01T23:38:44.989Z,98595.31
2023-05-01T23:43:53.258Z,98592.81
2023-05-01T23:48:58.996Z,98590.00
2023-05-01T23:54:07.063Z,98589.44
2023-05-01T23:59:15.026Z,98577.22
